St-Mathias Airport

METAR CYHU TAF CYHU
1 °C
°C
-
°C
4m
Età
05:02:53
LT
04:02
UTC
0 ft

1.000

2.000

3.000

4.000

5.000

FEW 900
SCT 1.800
BKN 3.100
OVC 4.000
VFR
<?= Yii::t('app', 'Wind direction') ?> <?= Yii::t('app', 'of'); ?>
190°
07:05
Alba
93%
Umidità
Taglio del vento
Chiuso/Neve
Raggio visivo RWY
Condizione della RWY
Visibilità verticale
Visibilità minima
CAVOK
Tendenza
Correzione
Rapporto speciale
29,86 inHg
QNH
METAR CYHU 080359Z AUTO 19011KT 9SM FEW009 SCT018 BKN031 OVC040 01/M00 A2986 RMK SLP114
Copertura totale
8 kt
8 kt
23:00
IFR
12 kt
00:00
LIFR
10 kt
01:00
LIFR
10 kt
02:00
VFR
12 kt
03:00
VFR
12 kt
04:00
VFR
12 kt
05:00
VFR
12 kt
9 mi
Vista
3.100 ft
Base nuvolosa
11 kt
Vento
metar-taf.com/CSP5

Metar-Taf.com

Decodificatore visivo

Noi e le terze parti seguiamo il tuo comportamento su internet con i cookie. Se continui, riteniamo che tu sia d'accordo con la nostra Politica sui cookie.